Skip Navigation Links Skip Navigation Links

Current Weather

Ronald Reagan Washington National, Washington

For information only: do not use for flight planning or navigation.
Latest weather
Observation time Wednesday, December 2, 2020 10:52 PM EST
Local time Wednesday, December 2, 2020 11:29 PM EST
Flight conditions Visual Meteorological Conditions
Winds
Wind direction West-Northwest (300°)
Wind speed 8 mph
Visibility 10 mi.
Sky condition
Ceiling unlimited
Sky clear
Temperature 41°F
Dewpoint 18°F
Altimeter 30.26 in.Hg
Derived measurements
Relative humidity 39%
Wind chill 36°F
Density altitude -1524 ft.
Sea-level pressure 30.26 in.Hg
Remarks
Automated weather observing station with precipitation discriminator.
METAR KDCA 030352Z 30007KT 10SM CLR 05/M08 A3026 RMK AO2 SLP246 T00501078

Settings

Location code

InnerDrive.Weather 4.0.6770.0 Release CLR 4.0.30319.42000
Copyright ©2018 Inner Drive Technology. All rights reserved. Portions Copyright ©1986-2018 David Braverman.

Find weather

Site navigation


Skip Navigation Links

Place info

Page info

PayPal - The safer, easier way to pay online!

Return home.

Copyright ©2020 Inner Drive Technology. Purveyors of fine, hand-crafted computer software. Page printed 2020-12-03T04:29:27 UTC.